Tellejaur, Sweden

8:02 PM CEST on August 29, 2014 (GMT +0200)
Vidsel Air Base | Change Station
CLOSE
Current Station
Airport
Location: Vidsel,
Elevation: 597 ft
Nearby Weather Stations

Elev 597 ft 65.88 °N, 20.14 °E | Updated 12 minutes ago

Overcast
Overcast
55 °F
Feels Like 55 °F
N
2
Wind Variable Wind from North

Today
High -- | Low -- °F
--% Chance of Precip.
Yesterday
High -- | Low -- °F
Precip. -- in
5:05 AM 8:17 PM
Waxing Crescent, 15% visible
Pressure 30.06 in
Visibility 6.2 miles
Clouds Overcast 5400 ft
Dew Point 46 °F
Humidity 72%
Rainfall 0.00 in
Snow Depth Not available.
UV 0 out of 12
Pollen Not available.
Air Quality Not available.
Flu Activity Not available.
METAR ESPE 291750Z AUTO 01002KT 9999NDV OVC054/// 13/08 Q1018

More Conditions Fewer Conditions

Pressure 30.06 in
Visibility 6.2 miles
Clouds Overcast 5400 ft
Dew Point 46 °F
Humidity 72%
Rainfall 0.00 in
Snow Depth Not available.
UV 0 out of 12
Pollen Not available.
Air Quality Not available.
Flu Activity Not available.
METAR ESPE 291750Z AUTO 01002KT 9999NDV OVC054/// 13/08 Q1018

More Conditions Fewer Conditions

10-Day Weather Forecast

Almanac

Astronomy

Aug. 29, 2014 Rise Set
Actual Time 5:05 AM CEST 8:17 PM CEST
Civil Twilight 4:04 AM CEST 9:17 PM CEST
Nautical Twilight 2:27 AM CEST 10:51 PM CEST
Astronomical Twilight Sun does not rise Sun does not rise
Moon 10:21 AM CEST 8:13 PM CEST
Length of Visible Light 17h 13m
Length of Day
15h 11m
Tomorrow will be 7m 15s shorter.
Waxing Crescent, 15% of the Moon is Illuminated
Today
Waxing Crescent
Sep 2
First Quarter
Sep 8
Full
Sep 15
Last Quarter
Sep 24
New

Today's Extremes

Country Highs Country Lows

Community

WunderPhotos

Upload Photos

1,748,307 photos uploaded!

Nearby

Snow Depth

Not available.

Earthquake Activity

City Distance Mag. Time & Date
No recent earthquake activity has been reported nearby.
Minimum magnitude displayed is 2.5.

Coastal Water Temperatures

Place Temperature
No Stations Reporting

Nearby Weather Stations